sensor_id;sensor_type;location;lat;lon;timestamp;temperature;humidity
76838;DHT22;65797;47.352;8.164;2023-04-21T00:01:03;2.40;1.00
76838;DHT22;65797;47.352;8.164;2023-04-21T00:03:33;2.30;1.00
76838;DHT22;65797;47.352;8.164;2023-04-21T00:06:03;2.20;1.00
76838;DHT22;65797;47.352;8.164;2023-04-21T00:08:31;2.20;1.00
76838;DHT22;65797;47.352;8.164;2023-04-21T00:10:57;2.20;7.90
76838;DHT22;65797;47.352;8.164;2023-04-21T00:13:23;2.40;99.90
76838;DHT22;65797;47.352;8.164;2023-04-21T00:15:49;2.40;99.90
76838;DHT22;65797;47.352;8.164;2023-04-21T00:18:16;2.50;99.90
76838;DHT22;65797;47.352;8.164;2023-04-21T00:20:42;2.50;99.90
76838;DHT22;65797;47.352;8.164;2023-04-21T00:23:09;2.50;99.90
76838;DHT22;65797;47.352;8.164;2023-04-21T00:25:35;2.60;99.90
76838;DHT22;65797;47.352;8.164;2023-04-21T00:28:01;2.60;99.90
76838;DHT22;65797;47.352;8.164;2023-04-21T00:30:28;2.60;99.90
76838;DHT22;65797;47.352;8.164;2023-04-21T00:32:53;2.60;99.90
76838;DHT22;65797;47.352;8.164;2023-04-21T00:35:20;2.60;99.90
76838;DHT22;65797;47.352;8.164;2023-04-21T00:37:46;2.60;99.90
76838;DHT22;65797;47.352;8.164;2023-04-21T00:40:12;2.60;99.90
76838;DHT22;65797;47.352;8.164;2023-04-21T00:42:38;2.60;99.90
76838;DHT22;65797;47.352;8.164;2023-04-21T00:45:04;2.60;99.90
76838;DHT22;65797;47.352;8.164;2023-04-21T00:47:30;2.70;99.90
76838;DHT22;65797;47.352;8.164;2023-04-21T00:49:59;2.60;99.90
76838;DHT22;65797;47.352;8.164;2023-04-21T00:52:25;2.60;99.90
76838;DHT22;65797;47.352;8.164;2023-04-21T00:54:52;2.60;99.90
76838;DHT22;65797;47.352;8.164;2023-04-21T00:57:19;2.50;99.90
76838;DHT22;65797;47.352;8.164;2023-04-21T00:59:45;2.50;99.90
76838;DHT22;65797;47.352;8.164;2023-04-21T01:02:12;2.50;99.90
76838;DHT22;65797;47.352;8.164;2023-04-21T01:04:38;2.50;99.90
76838;DHT22;65797;47.352;8.164;2023-04-21T01:07:05;2.60;99.90
76838;DHT22;65797;47.352;8.164;2023-04-21T01:09:32;2.60;99.90
76838;DHT22;65797;47.352;8.164;2023-04-21T01:12:11;2.70;99.90
76838;DHT22;65797;47.352;8.164;2023-04-21T01:14:38;2.70;99.90
76838;DHT22;65797;47.352;8.164;2023-04-21T01:17:04;2.70;99.90
76838;DHT22;65797;47.352;8.164;2023-04-21T01:19:36;2.80;99.90
76838;DHT22;65797;47.352;8.164;2023-04-21T01:22:09;2.70;99.90
76838;DHT22;65797;47.352;8.164;2023-04-21T01:24:42;2.80;99.90
76838;DHT22;65797;47.352;8.164;2023-04-21T01:27:17;2.80;99.90
76838;DHT22;65797;47.352;8.164;2023-04-21T01:29:48;2.80;99.90
76838;DHT22;65797;47.352;8.164;2023-04-21T01:32:26;2.90;1.00
76838;DHT22;65797;47.352;8.164;2023-04-21T01:34:52;2.90;1.00
76838;DHT22;65797;47.352;8.164;2023-04-21T01:37:20;2.90;1.00
76838;DHT22;65797;47.352;8.164;2023-04-21T01:39:49;2.80;99.90
76838;DHT22;65797;47.352;8.164;2023-04-21T01:42:24;2.80;99.90
76838;DHT22;65797;47.352;8.164;2023-04-21T01:44:50;2.90;1.00
76838;DHT22;65797;47.352;8.164;2023-04-21T01:47:18;2.90;1.00
76838;DHT22;65797;47.352;8.164;2023-04-21T01:49:44;2.80;1.00
76838;DHT22;65797;47.352;8.164;2023-04-21T01:52:10;2.80;1.00
76838;DHT22;65797;47.352;8.164;2023-04-21T01:54:35;2.80;1.00
76838;DHT22;65797;47.352;8.164;2023-04-21T01:57:02;2.90;1.00
76838;DHT22;65797;47.352;8.164;2023-04-21T01:59:28;2.80;1.00
76838;DHT22;65797;47.352;8.164;2023-04-21T02:01:53;2.90;1.00
76838;DHT22;65797;47.352;8.164;2023-04-21T02:04:19;2.90;1.00
76838;DHT22;65797;47.352;8.164;2023-04-21T02:06:45;2.90;1.00
76838;DHT22;65797;47.352;8.164;2023-04-21T02:09:10;2.90;1.00
76838;DHT22;65797;47.352;8.164;2023-04-21T02:11:36;2.90;1.00
76838;DHT22;65797;47.352;8.164;2023-04-21T02:14:02;3.00;1.00
76838;DHT22;65797;47.352;8.164;2023-04-21T02:16:28;3.00;1.00
76838;DHT22;65797;47.352;8.164;2023-04-21T02:18:55;3.10;1.00
76838;DHT22;65797;47.352;8.164;2023-04-21T02:21:22;3.10;1.00
76838;DHT22;65797;47.352;8.164;2023-04-21T02:23:48;3.10;1.00
76838;DHT22;65797;47.352;8.164;2023-04-21T02:26:14;3.10;1.00
76838;DHT22;65797;47.352;8.164;2023-04-21T02:28:40;3.10;1.00
76838;DHT22;65797;47.352;8.164;2023-04-21T02:31:05;3.10;1.00
76838;DHT22;65797;47.352;8.164;2023-04-21T02:33:31;3.10;1.00
76838;DHT22;65797;47.352;8.164;2023-04-21T02:35:57;3.10;1.00
76838;DHT22;65797;47.352;8.164;2023-04-21T02:38:22;3.10;1.00
76838;DHT22;65797;47.352;8.164;2023-04-21T02:40:48;3.20;1.00
76838;DHT22;65797;47.352;8.164;2023-04-21T02:43:15;3.20;1.00
76838;DHT22;65797;47.352;8.164;2023-04-21T02:45:41;3.20;1.00
76838;DHT22;65797;47.352;8.164;2023-04-21T02:48:07;3.20;1.00
76838;DHT22;65797;47.352;8.164;2023-04-21T02:50:32;3.20;1.00
76838;DHT22;65797;47.352;8.164;2023-04-21T02:52:58;3.30;1.00
76838;DHT22;65797;47.352;8.164;2023-04-21T02:55:24;3.30;1.00
76838;DHT22;65797;47.352;8.164;2023-04-21T02:57:50;3.30;1.00
76838;DHT22;65797;47.352;8.164;2023-04-21T03:00:15;3.30;1.00
76838;DHT22;65797;47.352;8.164;2023-04-21T03:02:41;3.40;1.00
76838;DHT22;65797;47.352;8.164;2023-04-21T03:05:07;3.40;1.00
76838;DHT22;65797;47.352;8.164;2023-04-21T03:07:33;3.40;1.00
76838;DHT22;65797;47.352;8.164;2023-04-21T03:09:59;3.40;1.00
76838;DHT22;65797;47.352;8.164;2023-04-21T03:12:25;3.50;1.00
76838;DHT22;65797;47.352;8.164;2023-04-21T03:14:50;3.50;1.00
76838;DHT22;65797;47.352;8.164;2023-04-21T03:17:16;3.50;1.00
76838;DHT22;65797;47.352;8.164;2023-04-21T03:19:42;3.50;1.00
76838;DHT22;65797;47.352;8.164;2023-04-21T03:22:08;3.60;1.00
76838;DHT22;65797;47.352;8.164;2023-04-21T03:24:33;3.60;1.00
76838;DHT22;65797;47.352;8.164;2023-04-21T03:26:59;3.60;1.00
76838;DHT22;65797;47.352;8.164;2023-04-21T03:29:26;3.60;1.00
76838;DHT22;65797;47.352;8.164;2023-04-21T03:31:51;3.60;1.00
76838;DHT22;65797;47.352;8.164;2023-04-21T03:34:17;3.60;1.00
76838;DHT22;65797;47.352;8.164;2023-04-21T03:36:43;3.60;1.00
76838;DHT22;65797;47.352;8.164;2023-04-21T03:39:08;3.70;1.00
76838;DHT22;65797;47.352;8.164;2023-04-21T03:41:34;3.70;1.00
76838;DHT22;65797;47.352;8.164;2023-04-21T03:44:00;3.70;1.00
76838;DHT22;65797;47.352;8.164;2023-04-21T03:46:25;3.70;1.00
76838;DHT22;65797;47.352;8.164;2023-04-21T03:48:51;3.70;1.00
76838;DHT22;65797;47.352;8.164;2023-04-21T03:51:17;3.70;1.00
76838;DHT22;65797;47.352;8.164;2023-04-21T03:53:42;3.70;1.00
76838;DHT22;65797;47.352;8.164;2023-04-21T03:56:08;3.70;1.00
76838;DHT22;65797;47.352;8.164;2023-04-21T03:58:35;3.70;1.00
76838;DHT22;65797;47.352;8.164;2023-04-21T04:01:03;3.80;1.00
76838;DHT22;65797;47.352;8.164;2023-04-21T04:03:31;3.80;1.00
76838;DHT22;65797;47.352;8.164;2023-04-21T04:05:56;3.80;1.00
76838;DHT22;65797;47.352;8.164;2023-04-21T04:08:22;3.80;1.00
76838;DHT22;65797;47.352;8.164;2023-04-21T04:10:48;3.80;1.00
76838;DHT22;65797;47.352;8.164;2023-04-21T04:13:13;3.80;1.00
76838;DHT22;65797;47.352;8.164;2023-04-21T04:15:39;3.80;1.00
76838;DHT22;65797;47.352;8.164;2023-04-21T04:18:05;3.80;1.00
76838;DHT22;65797;47.352;8.164;2023-04-21T04:20:30;3.80;1.00
76838;DHT22;65797;47.352;8.164;2023-04-21T04:22:56;3.80;1.00
76838;DHT22;65797;47.352;8.164;2023-04-21T04:25:22;3.70;1.00
76838;DHT22;65797;47.352;8.164;2023-04-21T04:27:47;3.80;1.00
76838;DHT22;65797;47.352;8.164;2023-04-21T04:30:14;3.80;1.00
76838;DHT22;65797;47.352;8.164;2023-04-21T04:32:41;3.80;1.00
76838;DHT22;65797;47.352;8.164;2023-04-21T04:35:08;3.80;1.00
76838;DHT22;65797;47.352;8.164;2023-04-21T04:37:37;3.80;1.00
76838;DHT22;65797;47.352;8.164;2023-04-21T04:40:04;3.80;1.00
76838;DHT22;65797;47.352;8.164;2023-04-21T04:42:31;3.90;1.00
76838;DHT22;65797;47.352;8.164;2023-04-21T04:44:58;3.90;1.00
76838;DHT22;65797;47.352;8.164;2023-04-21T04:47:24;3.90;1.00
76838;DHT22;65797;47.352;8.164;2023-04-21T04:49:50;3.90;1.00
76838;DHT22;65797;47.352;8.164;2023-04-21T04:52:15;3.90;1.00
76838;DHT22;65797;47.352;8.164;2023-04-21T04:54:41;3.90;1.00
76838;DHT22;65797;47.352;8.164;2023-04-21T04:57:07;4.00;1.00
76838;DHT22;65797;47.352;8.164;2023-04-21T04:59:32;4.00;1.00
76838;DHT22;65797;47.352;8.164;2023-04-21T05:01:58;4.00;99.90
76838;DHT22;65797;47.352;8.164;2023-04-21T05:04:24;3.90;99.90
76838;DHT22;65797;47.352;8.164;2023-04-21T05:06:50;3.80;99.90
76838;DHT22;65797;47.352;8.164;2023-04-21T05:09:16;3.90;1.00
76838;DHT22;65797;47.352;8.164;2023-04-21T05:11:42;4.00;1.00
76838;DHT22;65797;47.352;8.164;2023-04-21T05:14:07;3.90;99.90
76838;DHT22;65797;47.352;8.164;2023-04-21T05:16:33;4.00;99.90
76838;DHT22;65797;47.352;8.164;2023-04-21T05:19:02;4.00;99.90
76838;DHT22;65797;47.352;8.164;2023-04-21T05:21:29;4.00;99.90
76838;DHT22;65797;47.352;8.164;2023-04-21T05:23:57;4.00;99.90
76838;DHT22;65797;47.352;8.164;2023-04-21T05:26:26;4.10;99.90
76838;DHT22;65797;47.352;8.164;2023-04-21T05:28:56;4.00;99.90
76838;DHT22;65797;47.352;8.164;2023-04-21T05:31:23;4.00;99.90
76838;DHT22;65797;47.352;8.164;2023-04-21T05:33:48;4.00;99.90
76838;DHT22;65797;47.352;8.164;2023-04-21T05:36:14;4.00;99.90
76838;DHT22;65797;47.352;8.164;2023-04-21T05:38:40;3.90;99.90
76838;DHT22;65797;47.352;8.164;2023-04-21T05:41:06;4.00;99.90
76838;DHT22;65797;47.352;8.164;2023-04-21T05:43:32;4.10;1.00
76838;DHT22;65797;47.352;8.164;2023-04-21T05:46:02;4.10;99.90
76838;DHT22;65797;47.352;8.164;2023-04-21T05:48:28;4.00;99.90
76838;DHT22;65797;47.352;8.164;2023-04-21T05:50:57;4.00;99.90
76838;DHT22;65797;47.352;8.164;2023-04-21T05:53:31;4.10;99.90
76838;DHT22;65797;47.352;8.164;2023-04-21T05:55:57;4.00;99.90
76838;DHT22;65797;47.352;8.164;2023-04-21T05:58:23;4.00;99.90
76838;DHT22;65797;47.352;8.164;2023-04-21T06:00:49;4.00;99.90
76838;DHT22;65797;47.352;8.164;2023-04-21T06:03:15;4.00;99.90
76838;DHT22;65797;47.352;8.164;2023-04-21T06:05:41;4.00;99.90
76838;DHT22;65797;47.352;8.164;2023-04-21T06:08:06;4.00;99.90
76838;DHT22;65797;47.352;8.164;2023-04-21T06:10:32;3.90;99.90
76838;DHT22;65797;47.352;8.164;2023-04-21T06:12:58;3.90;99.90
76838;DHT22;65797;47.352;8.164;2023-04-21T06:15:24;4.00;99.90
76838;DHT22;65797;47.352;8.164;2023-04-21T06:17:53;3.90;99.90
76838;DHT22;65797;47.352;8.164;2023-04-21T06:20:21;3.80;99.90
76838;DHT22;65797;47.352;8.164;2023-04-21T06:22:46;3.90;99.90
76838;DHT22;65797;47.352;8.164;2023-04-21T06:25:12;3.90;99.90
76838;DHT22;65797;47.352;8.164;2023-04-21T06:27:38;4.00;99.90
76838;DHT22;65797;47.352;8.164;2023-04-21T06:30:04;4.00;99.90
76838;DHT22;65797;47.352;8.164;2023-04-21T06:32:30;4.10;99.90
76838;DHT22;65797;47.352;8.164;2023-04-21T06:34:56;4.20;99.90
76838;DHT22;65797;47.352;8.164;2023-04-21T06:37:21;4.20;1.00
76838;DHT22;65797;47.352;8.164;2023-04-21T06:39:47;4.30;1.00
76838;DHT22;65797;47.352;8.164;2023-04-21T06:42:13;4.30;99.90
76838;DHT22;65797;47.352;8.164;2023-04-21T06:44:38;4.30;99.90
76838;DHT22;65797;47.352;8.164;2023-04-21T06:47:04;4.40;99.90
76838;DHT22;65797;47.352;8.164;2023-04-21T06:49:30;4.50;99.90
76838;DHT22;65797;47.352;8.164;2023-04-21T06:51:55;4.50;99.90
76838;DHT22;65797;47.352;8.164;2023-04-21T06:54:21;4.60;99.90
76838;DHT22;65797;47.352;8.164;2023-04-21T06:56:47;4.50;99.90
76838;DHT22;65797;47.352;8.164;2023-04-21T06:59:15;4.50;99.90
76838;DHT22;65797;47.352;8.164;2023-04-21T07:01:41;4.40;82.80
76838;DHT22;65797;47.352;8.164;2023-04-21T07:04:06;4.50;99.90
76838;DHT22;65797;47.352;8.164;2023-04-21T07:06:32;4.40;56.50
76838;DHT22;65797;47.352;8.164;2023-04-21T07:08:58;4.50;99.90
76838;DHT22;65797;47.352;8.164;2023-04-21T07:11:24;4.60;99.90
76838;DHT22;65797;47.352;8.164;2023-04-21T07:13:50;4.60;99.90
76838;DHT22;65797;47.352;8.164;2023-04-21T07:16:16;4.90;99.90
76838;DHT22;65797;47.352;8.164;2023-04-21T07:18:41;4.90;99.90
76838;DHT22;65797;47.352;8.164;2023-04-21T07:21:07;4.80;24.60
76838;DHT22;65797;47.352;8.164;2023-04-21T07:23:48;4.80;68.30
76838;DHT22;65797;47.352;8.164;2023-04-21T11:55:46;11.00;1.00
76838;DHT22;65797;47.352;8.164;2023-04-21T12:06:28;11.10;1.00
76838;DHT22;65797;47.352;8.164;2023-04-21T12:09:01;11.10;1.00
76838;DHT22;65797;47.352;8.164;2023-04-21T12:11:28;11.30;1.00
76838;DHT22;65797;47.352;8.164;2023-04-21T12:13:58;11.30;1.00
76838;DHT22;65797;47.352;8.164;2023-04-21T12:16:24;11.30;99.90
76838;DHT22;65797;47.352;8.164;2023-04-21T12:18:52;11.00;1.00
76838;DHT22;65797;47.352;8.164;2023-04-21T12:21:17;11.00;99.90
76838;DHT22;65797;47.352;8.164;2023-04-21T12:23:43;10.90;1.00
76838;DHT22;65797;47.352;8.164;2023-04-21T12:26:10;10.80;1.00
76838;DHT22;65797;47.352;8.164;2023-04-21T12:28:37;10.80;1.00
76838;DHT22;65797;47.352;8.164;2023-04-21T12:31:03;10.80;1.00
76838;DHT22;65797;47.352;8.164;2023-04-21T12:33:29;10.80;1.00
76838;DHT22;65797;47.352;8.164;2023-04-21T12:35:55;10.80;1.00
76838;DHT22;65797;47.352;8.164;2023-04-21T12:38:21;10.70;1.00
76838;DHT22;65797;47.352;8.164;2023-04-21T12:40:47;10.70;1.00
76838;DHT22;65797;47.352;8.164;2023-04-21T12:43:13;10.70;1.00
76838;DHT22;65797;47.352;8.164;2023-04-21T12:45:38;10.60;1.00
76838;DHT22;65797;47.352;8.164;2023-04-21T12:48:04;10.60;1.00
76838;DHT22;65797;47.352;8.164;2023-04-21T12:50:31;10.60;1.00
76838;DHT22;65797;47.352;8.164;2023-04-21T12:52:57;10.60;1.00
76838;DHT22;65797;47.352;8.164;2023-04-21T12:55:23;10.60;1.00
76838;DHT22;65797;47.352;8.164;2023-04-21T12:57:49;10.40;1.00
76838;DHT22;65797;47.352;8.164;2023-04-21T13:00:15;10.50;1.00
76838;DHT22;65797;47.352;8.164;2023-04-21T13:02:41;10.60;1.00
76838;DHT22;65797;47.352;8.164;2023-04-21T13:05:07;10.60;1.00
76838;DHT22;65797;47.352;8.164;2023-04-21T13:07:35;11.00;1.00
76838;DHT22;65797;47.352;8.164;2023-04-21T13:10:04;11.10;1.00
76838;DHT22;65797;47.352;8.164;2023-04-21T13:12:31;11.10;1.00
76838;DHT22;65797;47.352;8.164;2023-04-21T13:14:57;11.20;99.90
76838;DHT22;65797;47.352;8.164;2023-04-21T13:17:23;10.90;1.00
76838;DHT22;65797;47.352;8.164;2023-04-21T13:19:49;10.50;1.00
76838;DHT22;65797;47.352;8.164;2023-04-21T13:22:15;10.50;1.00
76838;DHT22;65797;47.352;8.164;2023-04-21T13:24:41;10.60;1.00
76838;DHT22;65797;47.352;8.164;2023-04-21T13:27:06;10.80;1.00
76838;DHT22;65797;47.352;8.164;2023-04-21T13:29:32;11.00;1.00
76838;DHT22;65797;47.352;8.164;2023-04-21T13:32:08;11.20;1.00
76838;DHT22;65797;47.352;8.164;2023-04-21T13:34:34;11.40;1.00
76838;DHT22;65797;47.352;8.164;2023-04-21T13:37:00;11.40;99.90
76838;DHT22;65797;47.352;8.164;2023-04-21T13:39:26;11.40;99.90
76838;DHT22;65797;47.352;8.164;2023-04-21T13:41:52;11.50;1.00
76838;DHT22;65797;47.352;8.164;2023-04-21T13:44:19;11.70;99.90
76838;DHT22;65797;47.352;8.164;2023-04-21T13:46:46;11.70;99.90
76838;DHT22;65797;47.352;8.164;2023-04-21T13:49:12;11.90;1.00
76838;DHT22;65797;47.352;8.164;2023-04-21T13:51:37;12.10;1.00
76838;DHT22;65797;47.352;8.164;2023-04-21T13:54:03;12.00;99.90
76838;DHT22;65797;47.352;8.164;2023-04-21T13:56:30;11.70;99.90
76838;DHT22;65797;47.352;8.164;2023-04-21T13:58:55;11.70;99.90
76838;DHT22;65797;47.352;8.164;2023-04-21T14:01:22;11.60;99.90
76838;DHT22;65797;47.352;8.164;2023-04-21T14:03:48;11.90;99.90
76838;DHT22;65797;47.352;8.164;2023-04-21T14:06:13;12.10;99.90
76838;DHT22;65797;47.352;8.164;2023-04-21T14:08:39;11.90;99.90
76838;DHT22;65797;47.352;8.164;2023-04-21T14:11:05;12.00;99.90
76838;DHT22;65797;47.352;8.164;2023-04-21T14:13:31;11.60;99.90
76838;DHT22;65797;47.352;8.164;2023-04-21T14:15:57;11.80;99.90
76838;DHT22;65797;47.352;8.164;2023-04-21T14:18:23;11.90;99.90
76838;DHT22;65797;47.352;8.164;2023-04-21T14:20:49;12.10;99.90
76838;DHT22;65797;47.352;8.164;2023-04-21T14:23:15;12.40;99.90
76838;DHT22;65797;47.352;8.164;2023-04-21T14:25:41;12.40;99.90
76838;DHT22;65797;47.352;8.164;2023-04-21T14:28:06;12.50;99.90
76838;DHT22;65797;47.352;8.164;2023-04-21T14:30:36;12.70;99.90
76838;DHT22;65797;47.352;8.164;2023-04-21T14:33:05;12.60;99.90
76838;DHT22;65797;47.352;8.164;2023-04-21T14:35:31;12.40;99.90
76838;DHT22;65797;47.352;8.164;2023-04-21T14:37:57;12.50;99.90
76838;DHT22;65797;47.352;8.164;2023-04-21T14:40:23;12.70;99.90
76838;DHT22;65797;47.352;8.164;2023-04-21T14:42:48;12.80;99.90
76838;DHT22;65797;47.352;8.164;2023-04-21T14:45:14;12.80;99.90
76838;DHT22;65797;47.352;8.164;2023-04-21T14:47:41;12.80;99.90
76838;DHT22;65797;47.352;8.164;2023-04-21T14:50:07;12.90;99.90
76838;DHT22;65797;47.352;8.164;2023-04-21T14:52:33;12.70;99.90
76838;DHT22;65797;47.352;8.164;2023-04-21T14:54:59;12.60;99.90
76838;DHT22;65797;47.352;8.164;2023-04-21T14:57:25;12.60;99.90
76838;DHT22;65797;47.352;8.164;2023-04-21T14:59:52;12.60;99.90
76838;DHT22;65797;47.352;8.164;2023-04-21T15:02:19;12.60;99.90
76838;DHT22;65797;47.352;8.164;2023-04-21T15:04:45;12.60;99.90
76838;DHT22;65797;47.352;8.164;2023-04-21T15:07:11;12.70;99.90
76838;DHT22;65797;47.352;8.164;2023-04-21T15:09:37;12.70;99.90
76838;DHT22;65797;47.352;8.164;2023-04-21T15:12:04;12.50;99.90
76838;DHT22;65797;47.352;8.164;2023-04-21T15:14:30;12.40;99.90
76838;DHT22;65797;47.352;8.164;2023-04-21T15:16:55;12.40;99.90
76838;DHT22;65797;47.352;8.164;2023-04-21T15:19:21;12.50;99.90
76838;DHT22;65797;47.352;8.164;2023-04-21T15:21:47;12.40;99.90
76838;DHT22;65797;47.352;8.164;2023-04-21T15:24:13;12.40;99.90
76838;DHT22;65797;47.352;8.164;2023-04-21T15:26:38;12.20;99.90
76838;DHT22;65797;47.352;8.164;2023-04-21T15:29:04;12.20;99.90
76838;DHT22;65797;47.352;8.164;2023-04-21T15:31:30;12.10;99.90
76838;DHT22;65797;47.352;8.164;2023-04-21T15:33:56;12.10;99.90
76838;DHT22;65797;47.352;8.164;2023-04-21T15:36:22;12.10;99.90
76838;DHT22;65797;47.352;8.164;2023-04-21T15:38:47;12.10;99.90
76838;DHT22;65797;47.352;8.164;2023-04-21T15:41:13;12.20;1.00
76838;DHT22;65797;47.352;8.164;2023-04-21T15:43:40;12.20;1.00
76838;DHT22;65797;47.352;8.164;2023-04-21T15:46:06;12.20;1.00
76838;DHT22;65797;47.352;8.164;2023-04-21T15:48:38;12.30;1.00
76838;DHT22;65797;47.352;8.164;2023-04-21T15:51:04;12.30;99.90
76838;DHT22;65797;47.352;8.164;2023-04-21T15:53:35;12.30;99.90
76838;DHT22;65797;47.352;8.164;2023-04-21T15:56:02;12.20;99.90
76838;DHT22;65797;47.352;8.164;2023-04-21T15:58:29;12.30;99.90
76838;DHT22;65797;47.352;8.164;2023-04-21T16:00:55;12.30;99.90
76838;DHT22;65797;47.352;8.164;2023-04-21T16:03:21;12.20;99.90
76838;DHT22;65797;47.352;8.164;2023-04-21T16:05:47;12.30;99.90
76838;DHT22;65797;47.352;8.164;2023-04-21T16:08:13;12.30;99.90
76838;DHT22;65797;47.352;8.164;2023-04-21T16:10:38;12.20;99.90
76838;DHT22;65797;47.352;8.164;2023-04-21T16:13:04;12.20;99.90
76838;DHT22;65797;47.352;8.164;2023-04-21T16:18:05;12.20;99.90
76838;DHT22;65797;47.352;8.164;2023-04-21T16:20:32;12.20;99.90
76838;DHT22;65797;47.352;8.164;2023-04-21T16:22:58;12.10;99.90
76838;DHT22;65797;47.352;8.164;2023-04-21T16:25:23;12.10;1.00
76838;DHT22;65797;47.352;8.164;2023-04-21T16:27:51;12.00;1.00
76838;DHT22;65797;47.352;8.164;2023-04-21T16:30:17;12.10;1.00
76838;DHT22;65797;47.352;8.164;2023-04-21T16:32:43;12.00;1.00
76838;DHT22;65797;47.352;8.164;2023-04-21T16:35:09;11.90;1.00
76838;DHT22;65797;47.352;8.164;2023-04-21T16:37:36;11.90;1.00
76838;DHT22;65797;47.352;8.164;2023-04-21T16:42:40;11.80;1.00
76838;DHT22;65797;47.352;8.164;2023-04-21T16:45:06;11.90;1.00
76838;DHT22;65797;47.352;8.164;2023-04-21T16:47:33;11.90;1.00
76838;DHT22;65797;47.352;8.164;2023-04-21T16:50:04;11.90;1.00
76838;DHT22;65797;47.352;8.164;2023-04-21T16:52:30;11.80;1.00
76838;DHT22;65797;47.352;8.164;2023-04-21T16:54:55;11.80;1.00
76838;DHT22;65797;47.352;8.164;2023-04-21T16:57:22;11.80;1.00
76838;DHT22;65797;47.352;8.164;2023-04-21T16:59:51;11.80;1.00
76838;DHT22;65797;47.352;8.164;2023-04-21T17:02:17;11.80;1.00
76838;DHT22;65797;47.352;8.164;2023-04-21T17:04:43;11.70;1.00
76838;DHT22;65797;47.352;8.164;2023-04-21T17:07:09;11.80;1.00
76838;DHT22;65797;47.352;8.164;2023-04-21T17:09:35;11.70;1.00
76838;DHT22;65797;47.352;8.164;2023-04-21T17:12:02;11.70;1.00
76838;DHT22;65797;47.352;8.164;2023-04-21T17:14:28;11.60;1.00
76838;DHT22;65797;47.352;8.164;2023-04-21T17:16:54;11.60;1.00
76838;DHT22;65797;47.352;8.164;2023-04-21T17:19:20;11.60;1.00
76838;DHT22;65797;47.352;8.164;2023-04-21T17:21:46;11.50;1.00
76838;DHT22;65797;47.352;8.164;2023-04-21T17:24:12;11.50;1.00
76838;DHT22;65797;47.352;8.164;2023-04-21T17:26:38;11.50;1.00
76838;DHT22;65797;47.352;8.164;2023-04-21T17:29:04;11.40;1.00
76838;DHT22;65797;47.352;8.164;2023-04-21T17:31:31;11.40;1.00
76838;DHT22;65797;47.352;8.164;2023-04-21T17:33:58;11.40;1.00
76838;DHT22;65797;47.352;8.164;2023-04-21T17:36:26;11.30;1.00
76838;DHT22;65797;47.352;8.164;2023-04-21T17:38:53;11.30;1.00
76838;DHT22;65797;47.352;8.164;2023-04-21T17:41:19;11.30;1.00
76838;DHT22;65797;47.352;8.164;2023-04-21T17:43:45;11.30;1.00
76838;DHT22;65797;47.352;8.164;2023-04-21T17:46:11;11.30;1.00
76838;DHT22;65797;47.352;8.164;2023-04-21T17:48:37;11.20;1.00
76838;DHT22;65797;47.352;8.164;2023-04-21T17:51:02;11.20;1.00
76838;DHT22;65797;47.352;8.164;2023-04-21T17:53:29;11.10;1.00
76838;DHT22;65797;47.352;8.164;2023-04-21T17:55:55;11.10;1.00
76838;DHT22;65797;47.352;8.164;2023-04-21T17:58:21;11.00;1.00
76838;DHT22;65797;47.352;8.164;2023-04-21T18:00:47;11.00;1.00
76838;DHT22;65797;47.352;8.164;2023-04-21T18:03:13;11.00;1.00
76838;DHT22;65797;47.352;8.164;2023-04-21T18:05:39;10.90;1.00
76838;DHT22;65797;47.352;8.164;2023-04-21T18:08:05;10.90;1.60
76838;DHT22;65797;47.352;8.164;2023-04-21T18:10:30;10.90;1.00
76838;DHT22;65797;47.352;8.164;2023-04-21T18:12:56;10.90;1.00
76838;DHT22;65797;47.352;8.164;2023-04-21T18:15:22;10.90;24.10
76838;DHT22;65797;47.352;8.164;2023-04-21T18:17:48;10.80;99.90
76838;DHT22;65797;47.352;8.164;2023-04-21T18:20:14;10.80;99.90
76838;DHT22;65797;47.352;8.164;2023-04-21T18:22:43;10.70;99.90
76838;DHT22;65797;47.352;8.164;2023-04-21T18:25:12;10.60;99.90
76838;DHT22;65797;47.352;8.164;2023-04-21T18:27:38;10.60;99.90
76838;DHT22;65797;47.352;8.164;2023-04-21T18:30:06;10.50;1.00
76838;DHT22;65797;47.352;8.164;2023-04-21T18:32:34;10.40;1.00
76838;DHT22;65797;47.352;8.164;2023-04-21T18:35:00;10.30;1.00
76838;DHT22;65797;47.352;8.164;2023-04-21T18:37:26;10.30;99.90
76838;DHT22;65797;47.352;8.164;2023-04-21T18:39:52;10.30;1.00
76838;DHT22;65797;47.352;8.164;2023-04-21T18:42:17;10.20;1.00
76838;DHT22;65797;47.352;8.164;2023-04-21T18:44:43;10.20;1.00
76838;DHT22;65797;47.352;8.164;2023-04-21T18:47:09;10.20;1.00
76838;DHT22;65797;47.352;8.164;2023-04-21T18:49:36;10.20;1.00
76838;DHT22;65797;47.352;8.164;2023-04-21T18:52:03;10.10;1.00
76838;DHT22;65797;47.352;8.164;2023-04-21T18:54:29;10.10;99.90
76838;DHT22;65797;47.352;8.164;2023-04-21T18:56:55;10.10;1.00
76838;DHT22;65797;47.352;8.164;2023-04-21T18:59:22;10.00;1.00
76838;DHT22;65797;47.352;8.164;2023-04-21T19:01:48;9.90;1.00
76838;DHT22;65797;47.352;8.164;2023-04-21T19:04:14;9.90;1.00
76838;DHT22;65797;47.352;8.164;2023-04-21T19:06:39;9.90;1.00
76838;DHT22;65797;47.352;8.164;2023-04-21T19:09:05;9.80;99.90
76838;DHT22;65797;47.352;8.164;2023-04-21T19:11:31;9.80;1.00
76838;DHT22;65797;47.352;8.164;2023-04-21T19:13:57;9.70;1.00
76838;DHT22;65797;47.352;8.164;2023-04-21T19:16:25;9.70;1.00
76838;DHT22;65797;47.352;8.164;2023-04-21T19:18:50;9.60;1.00
76838;DHT22;65797;47.352;8.164;2023-04-21T19:21:16;9.60;1.00
76838;DHT22;65797;47.352;8.164;2023-04-21T19:23:42;9.60;1.00
76838;DHT22;65797;47.352;8.164;2023-04-21T19:26:08;9.60;1.00
76838;DHT22;65797;47.352;8.164;2023-04-21T19:28:36;9.60;1.00
76838;DHT22;65797;47.352;8.164;2023-04-21T19:31:03;9.50;1.00
76838;DHT22;65797;47.352;8.164;2023-04-21T19:33:28;9.50;1.00
76838;DHT22;65797;47.352;8.164;2023-04-21T19:35:54;9.40;1.00
76838;DHT22;65797;47.352;8.164;2023-04-21T19:38:21;9.40;1.00
76838;DHT22;65797;47.352;8.164;2023-04-21T19:40:46;9.40;1.00
76838;DHT22;65797;47.352;8.164;2023-04-21T19:43:12;9.30;1.00
76838;DHT22;65797;47.352;8.164;2023-04-21T19:45:39;9.30;1.00
76838;DHT22;65797;47.352;8.164;2023-04-21T19:48:05;9.20;1.00
76838;DHT22;65797;47.352;8.164;2023-04-21T19:50:33;9.20;1.00
76838;DHT22;65797;47.352;8.164;2023-04-21T19:53:02;9.10;1.00
76838;DHT22;65797;47.352;8.164;2023-04-21T19:55:28;9.10;1.00
76838;DHT22;65797;47.352;8.164;2023-04-21T19:57:54;9.10;1.00
76838;DHT22;65797;47.352;8.164;2023-04-21T20:00:22;9.10;1.00
76838;DHT22;65797;47.352;8.164;2023-04-21T20:02:48;9.00;1.00
76838;DHT22;65797;47.352;8.164;2023-04-21T20:05:14;9.00;1.00
76838;DHT22;65797;47.352;8.164;2023-04-21T20:07:40;8.90;99.90
76838;DHT22;65797;47.352;8.164;2023-04-21T20:10:06;8.90;8.40
76838;DHT22;65797;47.352;8.164;2023-04-21T20:12:33;8.90;25.10
76838;DHT22;65797;47.352;8.164;2023-04-21T20:14:59;8.80;99.90
76838;DHT22;65797;47.352;8.164;2023-04-21T20:17:25;8.80;99.90
76838;DHT22;65797;47.352;8.164;2023-04-21T20:19:52;8.80;99.90
76838;DHT22;65797;47.352;8.164;2023-04-21T20:22:18;8.80;99.90
76838;DHT22;65797;47.352;8.164;2023-04-21T20:24:44;8.70;1.00